Buckeye, AZ

8:33 AM MST on March 28, 2017 (GMT -0700)
Buckeye Municipal

Weather History for KBXK - March, 2014

Change the Weather History Date:

Monday, March 24, 2014

  Actual Average (KGYR) Record (KGYR)
Temperature  
Mean Temperature 67 °F -  
Max Temperature 84 °F 80 °F 91 °F (1998)
Min Temperature 50 °F 51 °F 41 °F (2009)
Cooling Degree Days 2    
Growing Degree Days 17 (Base 50)    
Moisture  
Dew Point 27 °F    
Average Humidity 23    
Maximum Humidity 41    
Minimum Humidity 8    
Precipitation  
Precipitation 0.00 in - - ()
Sea Level Pressure  
Sea Level Pressure 29.97 in    
Wind  
Wind Speed 5 mph (NE)    
Max Wind Speed 10 mph    
Max Gust Speed -    
Visibility 10 miles    
Events      
Averages and records for this station are not official NWS values.
T = Trace of Precipitation, MM = Missing Value Source: NWS Daily Summary

Daily Weather History Graph

Daily Weather History Graph

Search for Another Location

Airport or City:

Trip Planner

Search our weather history database for the weather conditions in past years. The results will help you decide how hot, cold, wet, or windy it might be!

Date:

Astronomy

Mar. 24, 2014 Rise Set
Actual Time 6:28 AM MST 6:45 PM MST
Civil Twilight 6:04 AM MST 7:10 PM MST
Nautical Twilight 5:35 AM MST 7:39 PM MST
Astronomical Twilight 5:05 AM MST 8:08 PM MST
Moon 1:46 AM MST (3/24) 12:30 PM MST (3/24)
Length of Visible Light 13h 06m
Length of Day
12h 16m
Last Quarter, 42% of the Moon is Illuminated
Mar 24
Last Quarter
Mar 30
New
Apr 7
First Quarter
Apr 15
Full
Apr 22
Last Quarter

Hourly Weather History & Observations

Time (MST) Temp. Dew Point Humidity Pressure Visibility Wind Dir Wind Speed Gust Speed Precip Events Conditions
12:15 AM 62.6 °F 24.8 °F 24% 29.98 in 10.0 mi Calm Calm - N/A   Partly Cloudy
12:35 AM 59.0 °F 24.8 °F 27% 29.98 in 10.0 mi Calm Calm - N/A   Mostly Cloudy
12:55 AM 57.2 °F 28.4 °F 33% 29.98 in 10.0 mi NW 3.5 mph - N/A   Scattered Clouds
1:15 AM 59.0 °F 24.8 °F 27% 29.98 in 10.0 mi NNW 8.1 mph - N/A   Clear
1:35 AM 55.4 °F 24.8 °F 31% 29.98 in 10.0 mi NNW 9.2 mph - N/A   Clear
1:55 AM 57.2 °F 24.8 °F 29% 29.98 in 10.0 mi NNW 8.1 mph - N/A   Clear
2:15 AM 57.2 °F 24.8 °F 29% 29.97 in 10.0 mi NNW 9.2 mph - N/A   Clear
2:35 AM 57.2 °F 26.6 °F 31% 29.97 in 10.0 mi NNW 9.2 mph - N/A   Clear
2:55 AM 55.4 °F 26.6 °F 33% 29.97 in 10.0 mi NNW 9.2 mph - N/A   Clear
3:15 AM 55.4 °F 24.8 °F 31% 29.97 in 10.0 mi North 9.2 mph - N/A   Clear
3:35 AM 55.4 °F 24.8 °F 31% 29.97 in 10.0 mi North 6.9 mph - N/A   Clear
3:55 AM 55.4 °F 28.4 °F 36% 29.97 in 10.0 mi Calm Calm - N/A   Clear
4:15 AM 53.6 °F 26.6 °F 35% 29.98 in 10.0 mi NE 9.2 mph - N/A   Clear
4:35 AM 57.2 °F 26.6 °F 31% 29.98 in 10.0 mi East 8.1 mph - N/A   Clear
4:55 AM 55.4 °F 28.4 °F 36% 29.99 in 10.0 mi ENE 6.9 mph - N/A   Clear
5:15 AM 55.4 °F 28.4 °F 36% 29.99 in 10.0 mi East 3.5 mph - N/A   Clear
5:35 AM 53.6 °F 26.6 °F 35% 30.00 in 10.0 mi NNW 4.6 mph - N/A   Clear
5:55 AM 51.8 °F 26.6 °F 38% 30.00 in 10.0 mi NNW 4.6 mph - N/A   Partly Cloudy
6:15 AM 50.0 °F 26.6 °F 40% 30.01 in 7.0 mi NNW 5.8 mph - N/A   Partly Cloudy
6:35 AM 51.8 °F 26.6 °F 38% 30.01 in 9.0 mi NNW 8.1 mph - N/A   Partly Cloudy
6:55 AM 51.8 °F 26.6 °F 38% 30.02 in 10.0 mi North 8.1 mph - N/A   Clear
7:15 AM 53.6 °F 30.2 °F 41% 30.03 in 9.0 mi ENE 4.6 mph - N/A   Clear
7:35 AM 55.4 °F 28.4 °F 36% 30.03 in 10.0 mi ENE 4.6 mph - N/A   Clear
7:55 AM 62.6 °F 28.4 °F 27% 30.04 in 10.0 mi ENE 3.5 mph - N/A   Clear
8:15 AM 64.4 °F 32.0 °F 30% 30.04 in 10.0 mi SE 3.5 mph - N/A   Clear
8:35 AM 64.4 °F 32.0 °F 30% 30.04 in 10.0 mi SE 3.5 mph - N/A   Clear
8:55 AM 66.2 °F 35.6 °F 32% 30.04 in 10.0 mi ESE 3.5 mph - N/A   Clear
9:15 AM 66.2 °F 32.0 °F 28% 30.05 in 10.0 mi Calm Calm - N/A   Clear
9:35 AM 68.0 °F 33.8 °F 28% 30.05 in 10.0 mi SE 5.8 mph - N/A   Clear
9:55 AM 69.8 °F 35.6 °F 28% 30.05 in 10.0 mi SE 4.6 mph - N/A   Clear
10:15 AM 71.6 °F 35.6 °F 27% 30.05 in 10.0 mi Calm Calm - N/A   Clear
10:35 AM 71.6 °F 37.4 °F 29% 30.05 in 10.0 mi Calm Calm - N/A   Clear
10:55 AM 75.2 °F 32.0 °F 21% 30.04 in 10.0 mi ENE 8.1 mph - N/A   Clear
11:15 AM 77.0 °F 28.4 °F 17% 30.04 in 10.0 mi East 6.9 mph - N/A   Clear
11:35 AM 77.0 °F 30.2 °F 18% 30.04 in 10.0 mi East 9.2 mph - N/A   Clear
11:55 AM 78.8 °F 32.0 °F 18% 30.03 in 10.0 mi SE 8.1 mph - N/A   Clear
12:15 PM 78.8 °F 32.0 °F 18% 30.02 in 10.0 mi SE 5.8 mph - N/A   Clear
12:35 PM 80.6 °F 32.0 °F 17% 30.01 in 10.0 mi SE 5.8 mph - N/A   Clear
12:55 PM 80.6 °F 32.0 °F 17% 30.01 in 10.0 mi SE 8.1 mph - N/A   Clear
1:15 PM 82.4 °F 28.4 °F 14% 30.00 in 10.0 mi SE 8.1 mph - N/A   Clear
1:35 PM 82.4 °F 26.6 °F 13% 29.98 in 10.0 mi SE 6.9 mph - N/A   Clear
1:55 PM 82.4 °F 24.8 °F 12% 29.97 in 10.0 mi SE 9.2 mph - N/A   Clear
2:15 PM 82.4 °F 26.6 °F 13% 29.96 in 10.0 mi East 4.6 mph - N/A   Clear
2:35 PM 84.2 °F 26.6 °F 12% 29.96 in 10.0 mi ESE 4.6 mph - N/A   Clear
2:55 PM 82.4 °F 26.6 °F 13% 29.95 in 10.0 mi South 3.5 mph - N/A   Clear
3:15 PM 84.2 °F 24.8 °F 11% 29.94 in 10.0 mi SSE 3.5 mph - N/A   Clear
3:35 PM 84.2 °F 19.4 °F 9% 29.93 in 10.0 mi WSW 5.8 mph - N/A   Clear
3:55 PM 84.2 °F 19.4 °F 9% 29.92 in 10.0 mi SW 3.5 mph - N/A   Clear
4:15 PM 84.2 °F 19.4 °F 9% 29.91 in 10.0 mi South 5.8 mph - N/A   Clear
4:35 PM 84.2 °F 17.6 °F 8% 29.91 in 10.0 mi Calm Calm - N/A   Clear
4:55 PM 84.2 °F 19.4 °F 9% 29.91 in 10.0 mi SSW 3.5 mph - N/A   Clear
5:15 PM 84.2 °F 17.6 °F 8% 29.91 in 10.0 mi SSE 3.5 mph - N/A   Clear
5:35 PM 84.2 °F 17.6 °F 8% 29.91 in 10.0 mi SSE 3.5 mph - N/A   Clear
5:55 PM 84.2 °F 21.2 °F 10% 29.91 in 10.0 mi Calm Calm - N/A   Clear
6:15 PM 82.4 °F 21.2 °F 10% 29.90 in 10.0 mi Calm Calm - N/A   Clear
6:35 PM 80.6 °F 26.6 °F 14% 29.90 in 10.0 mi Calm Calm - N/A   Clear
6:55 PM 77.0 °F 32.0 °F 19% 29.90 in 10.0 mi WSW 3.5 mph - N/A   Partly Cloudy
7:15 PM 75.2 °F 28.4 °F 18% 29.91 in 10.0 mi SW 4.6 mph - N/A   Mostly Cloudy
7:35 PM 75.2 °F 26.6 °F 17% 29.91 in 10.0 mi WSW 5.8 mph - N/A   Overcast
7:55 PM 73.4 °F 28.4 °F 19% 29.91 in 10.0 mi WNW 6.9 mph - N/A   Overcast
8:15 PM 73.4 °F 26.6 °F 18% 29.91 in 10.0 mi WNW 5.8 mph - N/A   Overcast
8:35 PM 71.6 °F 26.6 °F 19% 29.92 in 10.0 mi NW 6.9 mph - N/A   Overcast
8:55 PM 68.0 °F 28.4 °F 23% 29.92 in 9.0 mi NW 6.9 mph - N/A   Overcast
9:15 PM 68.0 °F 26.6 °F 21% 29.92 in 10.0 mi North 6.9 mph - N/A   Mostly Cloudy
9:35 PM 66.2 °F 26.6 °F 23% 29.92 in 10.0 mi North 8.1 mph - N/A   Partly Cloudy
9:55 PM 68.0 °F 26.6 °F 21% 29.92 in 10.0 mi North 9.2 mph - N/A   Scattered Clouds
10:15 PM 68.0 °F 24.8 °F 20% 29.91 in 10.0 mi North 10.4 mph - N/A   Clear
10:35 PM 66.2 °F 24.8 °F 21% 29.91 in 10.0 mi North 9.2 mph - N/A   Clear
10:55 PM 66.2 °F 24.8 °F 21% 29.92 in 10.0 mi NNE 6.9 mph - N/A   Clear
11:15 PM 62.6 °F 28.4 °F 27% 29.92 in 10.0 mi Calm Calm - N/A   Clear
11:35 PM 59.0 °F 32.0 °F 36% 29.92 in 10.0 mi West 4.6 mph - N/A   Clear
11:55 PM 60.8 °F 26.6 °F 27% 29.91 in 10.0 mi North 3.5 mph - N/A   Clear